sensor_id;sensor_type;location;lat;lon;timestamp;temperature;humidity
29571;DHT22;16814;52.118;11.436;2023-04-08T00:00:18;5.10;99.90
29571;DHT22;16814;52.118;11.436;2023-04-08T00:02:43;5.10;99.90
29571;DHT22;16814;52.118;11.436;2023-04-08T00:05:10;5.00;99.90
29571;DHT22;16814;52.118;11.436;2023-04-08T00:07:35;5.00;99.90
29571;DHT22;16814;52.118;11.436;2023-04-08T00:10:02;5.10;99.90
29571;DHT22;16814;52.118;11.436;2023-04-08T00:12:27;5.10;99.90
29571;DHT22;16814;52.118;11.436;2023-04-08T00:14:53;5.20;99.90
29571;DHT22;16814;52.118;11.436;2023-04-08T00:17:18;5.20;99.90
29571;DHT22;16814;52.118;11.436;2023-04-08T00:19:44;5.10;99.90
29571;DHT22;16814;52.118;11.436;2023-04-08T00:22:10;5.10;99.90
29571;DHT22;16814;52.118;11.436;2023-04-08T00:24:36;4.90;99.90
29571;DHT22;16814;52.118;11.436;2023-04-08T00:27:01;5.00;99.90
29571;DHT22;16814;52.118;11.436;2023-04-08T00:29:27;4.90;99.90
29571;DHT22;16814;52.118;11.436;2023-04-08T00:31:53;5.00;99.90
29571;DHT22;16814;52.118;11.436;2023-04-08T00:34:19;5.10;99.90
29571;DHT22;16814;52.118;11.436;2023-04-08T00:36:45;5.00;99.90
29571;DHT22;16814;52.118;11.436;2023-04-08T00:39:12;4.90;99.90
29571;DHT22;16814;52.118;11.436;2023-04-08T00:41:38;4.90;99.90
29571;DHT22;16814;52.118;11.436;2023-04-08T00:44:03;4.80;99.90
29571;DHT22;16814;52.118;11.436;2023-04-08T00:46:30;4.90;99.90
29571;DHT22;16814;52.118;11.436;2023-04-08T00:48:59;4.80;99.90
29571;DHT22;16814;52.118;11.436;2023-04-08T00:51:27;4.80;99.90
29571;DHT22;16814;52.118;11.436;2023-04-08T00:53:53;4.80;99.90
29571;DHT22;16814;52.118;11.436;2023-04-08T00:56:20;4.70;99.90
29571;DHT22;16814;52.118;11.436;2023-04-08T00:58:46;4.70;99.90
29571;DHT22;16814;52.118;11.436;2023-04-08T01:01:16;4.80;99.90
29571;DHT22;16814;52.118;11.436;2023-04-08T01:04:13;4.80;99.90
29571;DHT22;16814;52.118;11.436;2023-04-08T01:09:31;5.10;99.90
29571;DHT22;16814;52.118;11.436;2023-04-08T01:11:58;4.80;99.90
29571;DHT22;16814;52.118;11.436;2023-04-08T01:14:27;4.70;99.90
29571;DHT22;16814;52.118;11.436;2023-04-08T01:16:55;4.60;99.90
29571;DHT22;16814;52.118;11.436;2023-04-08T01:19:36;4.70;99.90
29571;DHT22;16814;52.118;11.436;2023-04-08T01:22:31;4.80;99.90
29571;DHT22;16814;52.118;11.436;2023-04-08T01:25:05;4.70;99.90
29571;DHT22;16814;52.118;11.436;2023-04-08T01:27:33;4.70;99.90
29571;DHT22;16814;52.118;11.436;2023-04-08T01:30:02;4.80;99.90
29571;DHT22;16814;52.118;11.436;2023-04-08T01:32:28;4.80;99.90
29571;DHT22;16814;52.118;11.436;2023-04-08T01:34:55;4.70;99.90
29571;DHT22;16814;52.118;11.436;2023-04-08T01:37:24;4.60;99.90
29571;DHT22;16814;52.118;11.436;2023-04-08T01:39:51;4.70;99.90
29571;DHT22;16814;52.118;11.436;2023-04-08T01:42:17;4.70;99.90
29571;DHT22;16814;52.118;11.436;2023-04-08T01:44:44;4.60;99.90
29571;DHT22;16814;52.118;11.436;2023-04-08T01:47:12;4.50;99.90
29571;DHT22;16814;52.118;11.436;2023-04-08T01:49:38;4.60;99.90
29571;DHT22;16814;52.118;11.436;2023-04-08T01:52:05;4.50;99.90
29571;DHT22;16814;52.118;11.436;2023-04-08T01:54:32;4.50;99.90
29571;DHT22;16814;52.118;11.436;2023-04-08T01:57:00;4.50;99.90
29571;DHT22;16814;52.118;11.436;2023-04-08T01:59:30;4.50;99.90
29571;DHT22;16814;52.118;11.436;2023-04-08T02:02:01;4.60;99.90
29571;DHT22;16814;52.118;11.436;2023-04-08T02:04:28;4.50;99.90
29571;DHT22;16814;52.118;11.436;2023-04-08T02:06:55;4.60;99.90
29571;DHT22;16814;52.118;11.436;2023-04-08T02:09:21;4.60;99.90
29571;DHT22;16814;52.118;11.436;2023-04-08T02:11:46;4.50;99.90
29571;DHT22;16814;52.118;11.436;2023-04-08T02:14:12;4.60;99.90
29571;DHT22;16814;52.118;11.436;2023-04-08T02:16:39;4.50;99.90
29571;DHT22;16814;52.118;11.436;2023-04-08T02:19:55;4.50;99.90
29571;DHT22;16814;52.118;11.436;2023-04-08T02:25:16;4.50;99.90
29571;DHT22;16814;52.118;11.436;2023-04-08T02:27:44;4.60;99.90
29571;DHT22;16814;52.118;11.436;2023-04-08T02:30:12;4.80;99.90
29571;DHT22;16814;52.118;11.436;2023-04-08T02:32:38;4.80;99.90
29571;DHT22;16814;52.118;11.436;2023-04-08T02:35:04;4.70;99.90
29571;DHT22;16814;52.118;11.436;2023-04-08T02:37:31;4.70;99.90
29571;DHT22;16814;52.118;11.436;2023-04-08T02:39:57;4.70;99.90
29571;DHT22;16814;52.118;11.436;2023-04-08T02:42:22;4.60;99.90
29571;DHT22;16814;52.118;11.436;2023-04-08T02:44:48;4.60;99.90
29571;DHT22;16814;52.118;11.436;2023-04-08T02:47:14;4.60;99.90
29571;DHT22;16814;52.118;11.436;2023-04-08T02:49:39;4.60;99.90
29571;DHT22;16814;52.118;11.436;2023-04-08T02:52:05;4.60;99.90
29571;DHT22;16814;52.118;11.436;2023-04-08T02:54:31;4.60;99.90
29571;DHT22;16814;52.118;11.436;2023-04-08T02:56:56;4.60;99.90
29571;DHT22;16814;52.118;11.436;2023-04-08T02:59:22;4.70;99.90
29571;DHT22;16814;52.118;11.436;2023-04-08T03:01:47;4.60;99.90
29571;DHT22;16814;52.118;11.436;2023-04-08T03:04:13;4.70;99.90
29571;DHT22;16814;52.118;11.436;2023-04-08T03:06:38;4.60;99.90
29571;DHT22;16814;52.118;11.436;2023-04-08T03:09:04;4.70;99.90
29571;DHT22;16814;52.118;11.436;2023-04-08T03:11:32;4.70;99.90
29571;DHT22;16814;52.118;11.436;2023-04-08T03:13:58;4.70;99.90
29571;DHT22;16814;52.118;11.436;2023-04-08T03:16:24;4.70;99.90
29571;DHT22;16814;52.118;11.436;2023-04-08T03:18:50;4.60;99.90
29571;DHT22;16814;52.118;11.436;2023-04-08T03:21:15;4.50;99.90
29571;DHT22;16814;52.118;11.436;2023-04-08T03:23:41;4.60;99.90
29571;DHT22;16814;52.118;11.436;2023-04-08T03:26:07;4.50;99.90
29571;DHT22;16814;52.118;11.436;2023-04-08T03:28:32;4.60;99.90
29571;DHT22;16814;52.118;11.436;2023-04-08T03:30:58;4.60;99.90
29571;DHT22;16814;52.118;11.436;2023-04-08T03:33:25;4.60;99.90
29571;DHT22;16814;52.118;11.436;2023-04-08T03:35:50;4.60;99.90
29571;DHT22;16814;52.118;11.436;2023-04-08T03:38:16;4.60;99.90
29571;DHT22;16814;52.118;11.436;2023-04-08T03:40:41;4.50;99.90
29571;DHT22;16814;52.118;11.436;2023-04-08T03:43:07;4.50;99.90
29571;DHT22;16814;52.118;11.436;2023-04-08T03:45:33;4.50;99.90
29571;DHT22;16814;52.118;11.436;2023-04-08T03:47:58;4.60;99.90
29571;DHT22;16814;52.118;11.436;2023-04-08T03:50:24;4.60;99.90
29571;DHT22;16814;52.118;11.436;2023-04-08T03:52:50;4.70;99.90
29571;DHT22;16814;52.118;11.436;2023-04-08T03:55:15;4.60;99.90
29571;DHT22;16814;52.118;11.436;2023-04-08T03:57:42;4.50;99.90
29571;DHT22;16814;52.118;11.436;2023-04-08T04:00:08;4.50;99.90
29571;DHT22;16814;52.118;11.436;2023-04-08T04:02:34;5.10;99.90
29571;DHT22;16814;52.118;11.436;2023-04-08T04:05:01;4.50;99.90
29571;DHT22;16814;52.118;11.436;2023-04-08T04:07:27;4.60;99.90
29571;DHT22;16814;52.118;11.436;2023-04-08T04:09:52;4.50;99.90
29571;DHT22;16814;52.118;11.436;2023-04-08T04:12:20;4.60;99.90
29571;DHT22;16814;52.118;11.436;2023-04-08T04:14:46;4.60;99.90
29571;DHT22;16814;52.118;11.436;2023-04-08T04:17:11;4.60;99.90
29571;DHT22;16814;52.118;11.436;2023-04-08T04:19:37;4.60;99.90
29571;DHT22;16814;52.118;11.436;2023-04-08T04:22:05;4.60;99.90
29571;DHT22;16814;52.118;11.436;2023-04-08T04:24:30;4.60;99.90
29571;DHT22;16814;52.118;11.436;2023-04-08T04:26:56;4.60;99.90
29571;DHT22;16814;52.118;11.436;2023-04-08T04:29:21;4.50;99.90
29571;DHT22;16814;52.118;11.436;2023-04-08T04:31:47;4.50;99.90
29571;DHT22;16814;52.118;11.436;2023-04-08T04:34:12;4.50;99.90
29571;DHT22;16814;52.118;11.436;2023-04-08T04:36:38;4.50;99.90
29571;DHT22;16814;52.118;11.436;2023-04-08T04:39:03;4.60;99.90
29571;DHT22;16814;52.118;11.436;2023-04-08T04:41:29;4.60;99.90
29571;DHT22;16814;52.118;11.436;2023-04-08T04:43:55;4.60;99.90
29571;DHT22;16814;52.118;11.436;2023-04-08T04:46:23;4.60;99.90
29571;DHT22;16814;52.118;11.436;2023-04-08T04:48:49;4.60;99.90
29571;DHT22;16814;52.118;11.436;2023-04-08T04:51:15;4.70;99.90
29571;DHT22;16814;52.118;11.436;2023-04-08T04:53:41;4.60;99.90
29571;DHT22;16814;52.118;11.436;2023-04-08T04:56:09;4.60;99.90
29571;DHT22;16814;52.118;11.436;2023-04-08T04:58:35;4.60;99.90
29571;DHT22;16814;52.118;11.436;2023-04-08T05:01:00;4.70;99.90
29571;DHT22;16814;52.118;11.436;2023-04-08T05:03:26;4.60;99.90
29571;DHT22;16814;52.118;11.436;2023-04-08T05:05:53;4.50;99.90
29571;DHT22;16814;52.118;11.436;2023-04-08T05:08:20;4.60;99.90
29571;DHT22;16814;52.118;11.436;2023-04-08T05:10:46;4.60;99.90
29571;DHT22;16814;52.118;11.436;2023-04-08T05:13:11;4.70;99.90
29571;DHT22;16814;52.118;11.436;2023-04-08T05:15:37;4.70;99.90
29571;DHT22;16814;52.118;11.436;2023-04-08T05:18:02;4.70;99.90
29571;DHT22;16814;52.118;11.436;2023-04-08T05:20:28;4.60;99.90
29571;DHT22;16814;52.118;11.436;2023-04-08T05:22:54;4.60;99.90
29571;DHT22;16814;52.118;11.436;2023-04-08T05:25:20;4.60;99.90
29571;DHT22;16814;52.118;11.436;2023-04-08T05:27:45;4.60;99.90
29571;DHT22;16814;52.118;11.436;2023-04-08T05:30:11;4.60;99.90
29571;DHT22;16814;52.118;11.436;2023-04-08T05:32:37;4.60;99.90
29571;DHT22;16814;52.118;11.436;2023-04-08T05:35:03;4.70;99.90
29571;DHT22;16814;52.118;11.436;2023-04-08T05:37:29;4.70;99.90
29571;DHT22;16814;52.118;11.436;2023-04-08T05:39:54;4.60;99.90
29571;DHT22;16814;52.118;11.436;2023-04-08T05:42:20;4.60;99.90
29571;DHT22;16814;52.118;11.436;2023-04-08T05:44:45;4.60;99.90
29571;DHT22;16814;52.118;11.436;2023-04-08T05:47:11;4.60;99.90
29571;DHT22;16814;52.118;11.436;2023-04-08T05:49:37;4.60;99.90
29571;DHT22;16814;52.118;11.436;2023-04-08T05:52:03;4.70;99.90
29571;DHT22;16814;52.118;11.436;2023-04-08T05:54:28;4.70;99.90
29571;DHT22;16814;52.118;11.436;2023-04-08T05:56:54;4.70;99.90
29571;DHT22;16814;52.118;11.436;2023-04-08T05:59:20;4.70;99.90
29571;DHT22;16814;52.118;11.436;2023-04-08T06:01:45;4.50;99.90
29571;DHT22;16814;52.118;11.436;2023-04-08T06:04:11;4.70;99.90
29571;DHT22;16814;52.118;11.436;2023-04-08T06:06:37;4.70;99.90
29571;DHT22;16814;52.118;11.436;2023-04-08T06:09:04;4.70;99.90
29571;DHT22;16814;52.118;11.436;2023-04-08T06:11:29;4.60;99.90
29571;DHT22;16814;52.118;11.436;2023-04-08T06:13:55;4.70;99.90
29571;DHT22;16814;52.118;11.436;2023-04-08T06:16:23;4.70;99.90
29571;DHT22;16814;52.118;11.436;2023-04-08T06:18:49;4.70;99.90
29571;DHT22;16814;52.118;11.436;2023-04-08T06:21:16;4.70;99.90
29571;DHT22;16814;52.118;11.436;2023-04-08T06:23:42;4.80;99.90
29571;DHT22;16814;52.118;11.436;2023-04-08T06:26:07;4.80;99.90
29571;DHT22;16814;52.118;11.436;2023-04-08T06:28:33;4.80;99.90
29571;DHT22;16814;52.118;11.436;2023-04-08T06:30:58;4.80;99.90
29571;DHT22;16814;52.118;11.436;2023-04-08T06:33:24;4.80;99.90
29571;DHT22;16814;52.118;11.436;2023-04-08T06:35:50;4.80;99.90
29571;DHT22;16814;52.118;11.436;2023-04-08T06:38:17;4.80;99.90
29571;DHT22;16814;52.118;11.436;2023-04-08T06:40:42;4.80;99.90
29571;DHT22;16814;52.118;11.436;2023-04-08T06:43:08;4.80;99.90
29571;DHT22;16814;52.118;11.436;2023-04-08T06:45:34;4.80;99.90
29571;DHT22;16814;52.118;11.436;2023-04-08T06:47:59;4.80;99.90
29571;DHT22;16814;52.118;11.436;2023-04-08T06:50:25;4.70;99.90
29571;DHT22;16814;52.118;11.436;2023-04-08T06:52:51;4.70;99.90
29571;DHT22;16814;52.118;11.436;2023-04-08T06:55:16;4.80;99.90
29571;DHT22;16814;52.118;11.436;2023-04-08T06:57:43;4.90;99.90
29571;DHT22;16814;52.118;11.436;2023-04-08T07:00:09;4.80;99.90
29571;DHT22;16814;52.118;11.436;2023-04-08T07:02:35;4.90;99.90
29571;DHT22;16814;52.118;11.436;2023-04-08T07:05:01;4.90;99.90
29571;DHT22;16814;52.118;11.436;2023-04-08T07:07:26;4.80;99.90
29571;DHT22;16814;52.118;11.436;2023-04-08T07:09:52;4.80;99.90
29571;DHT22;16814;52.118;11.436;2023-04-08T07:12:17;4.80;99.90
29571;DHT22;16814;52.118;11.436;2023-04-08T07:14:43;4.90;99.90
29571;DHT22;16814;52.118;11.436;2023-04-08T07:17:08;4.90;99.90
29571;DHT22;16814;52.118;11.436;2023-04-08T07:19:34;4.90;99.90
29571;DHT22;16814;52.118;11.436;2023-04-08T07:22:00;4.90;99.90
29571;DHT22;16814;52.118;11.436;2023-04-08T07:24:26;4.90;99.90
29571;DHT22;16814;52.118;11.436;2023-04-08T07:26:51;4.80;99.90
29571;DHT22;16814;52.118;11.436;2023-04-08T07:29:17;4.90;99.90
29571;DHT22;16814;52.118;11.436;2023-04-08T07:31:43;4.90;99.90
29571;DHT22;16814;52.118;11.436;2023-04-08T07:34:09;4.90;99.90
29571;DHT22;16814;52.118;11.436;2023-04-08T07:36:34;5.00;99.90
29571;DHT22;16814;52.118;11.436;2023-04-08T07:39:00;5.10;99.90
29571;DHT22;16814;52.118;11.436;2023-04-08T07:41:26;5.20;99.90
29571;DHT22;16814;52.118;11.436;2023-04-08T07:43:51;5.30;99.90
29571;DHT22;16814;52.118;11.436;2023-04-08T07:46:17;5.10;99.90
29571;DHT22;16814;52.118;11.436;2023-04-08T07:48:42;5.10;99.90
29571;DHT22;16814;52.118;11.436;2023-04-08T07:51:09;5.00;99.90
29571;DHT22;16814;52.118;11.436;2023-04-08T07:53:34;5.10;99.90
29571;DHT22;16814;52.118;11.436;2023-04-08T07:56:01;5.10;99.90
29571;DHT22;16814;52.118;11.436;2023-04-08T07:58:28;5.20;99.90
29571;DHT22;16814;52.118;11.436;2023-04-08T08:00:54;5.20;99.90
29571;DHT22;16814;52.118;11.436;2023-04-08T08:03:21;5.10;99.90
29571;DHT22;16814;52.118;11.436;2023-04-08T08:05:47;5.20;99.90
29571;DHT22;16814;52.118;11.436;2023-04-08T08:08:13;5.20;99.90
29571;DHT22;16814;52.118;11.436;2023-04-08T08:10:39;5.20;99.90
29571;DHT22;16814;52.118;11.436;2023-04-08T08:13:05;5.30;99.90
29571;DHT22;16814;52.118;11.436;2023-04-08T08:15:31;5.20;99.90
29571;DHT22;16814;52.118;11.436;2023-04-08T08:17:57;5.20;99.90
29571;DHT22;16814;52.118;11.436;2023-04-08T08:20:22;5.20;99.90
29571;DHT22;16814;52.118;11.436;2023-04-08T08:22:48;5.20;99.90
29571;DHT22;16814;52.118;11.436;2023-04-08T08:25:14;5.30;99.90
29571;DHT22;16814;52.118;11.436;2023-04-08T08:27:39;5.30;99.90
29571;DHT22;16814;52.118;11.436;2023-04-08T08:30:07;5.40;99.90
29571;DHT22;16814;52.118;11.436;2023-04-08T08:32:33;5.20;99.90
29571;DHT22;16814;52.118;11.436;2023-04-08T08:35:00;5.20;99.90
29571;DHT22;16814;52.118;11.436;2023-04-08T08:37:26;5.10;99.90
29571;DHT22;16814;52.118;11.436;2023-04-08T08:39:52;5.20;99.90
29571;DHT22;16814;52.118;11.436;2023-04-08T08:42:24;5.40;99.90
29571;DHT22;16814;52.118;11.436;2023-04-08T08:44:50;5.40;99.90
29571;DHT22;16814;52.118;11.436;2023-04-08T08:47:16;5.30;99.90
29571;DHT22;16814;52.118;11.436;2023-04-08T08:49:43;5.40;99.90
29571;DHT22;16814;52.118;11.436;2023-04-08T08:52:08;5.40;99.90
29571;DHT22;16814;52.118;11.436;2023-04-08T08:54:34;5.40;99.90
29571;DHT22;16814;52.118;11.436;2023-04-08T08:57:00;5.50;99.90
29571;DHT22;16814;52.118;11.436;2023-04-08T08:59:27;5.50;99.90
29571;DHT22;16814;52.118;11.436;2023-04-08T09:01:52;5.40;99.90
29571;DHT22;16814;52.118;11.436;2023-04-08T09:04:19;5.30;99.90
29571;DHT22;16814;52.118;11.436;2023-04-08T09:06:48;5.50;99.90
29571;DHT22;16814;52.118;11.436;2023-04-08T09:09:16;5.50;99.90
29571;DHT22;16814;52.118;11.436;2023-04-08T09:11:44;5.60;99.90
29571;DHT22;16814;52.118;11.436;2023-04-08T09:14:22;5.70;99.90
29571;DHT22;16814;52.118;11.436;2023-04-08T09:16:49;5.80;99.90
29571;DHT22;16814;52.118;11.436;2023-04-08T09:19:15;5.70;99.90
29571;DHT22;16814;52.118;11.436;2023-04-08T09:21:41;5.60;99.90
29571;DHT22;16814;52.118;11.436;2023-04-08T09:24:07;5.70;99.90
29571;DHT22;16814;52.118;11.436;2023-04-08T09:26:33;5.80;99.90
29571;DHT22;16814;52.118;11.436;2023-04-08T09:29:05;5.80;99.90
29571;DHT22;16814;52.118;11.436;2023-04-08T09:31:38;5.80;99.90
29571;DHT22;16814;52.118;11.436;2023-04-08T09:34:14;5.90;99.90
29571;DHT22;16814;52.118;11.436;2023-04-08T09:36:42;6.10;99.90
29571;DHT22;16814;52.118;11.436;2023-04-08T09:39:09;6.10;99.90
29571;DHT22;16814;52.118;11.436;2023-04-08T09:41:35;6.00;99.90
29571;DHT22;16814;52.118;11.436;2023-04-08T09:44:03;5.90;99.90
29571;DHT22;16814;52.118;11.436;2023-04-08T09:49:13;5.90;99.90
29571;DHT22;16814;52.118;11.436;2023-04-08T09:54:58;6.00;99.90
29571;DHT22;16814;52.118;11.436;2023-04-08T09:57:51;5.90;99.90
29571;DHT22;16814;52.118;11.436;2023-04-08T10:00:24;6.00;99.90
29571;DHT22;16814;52.118;11.436;2023-04-08T10:03:00;6.10;99.90
29571;DHT22;16814;52.118;11.436;2023-04-08T10:05:27;6.10;99.90
29571;DHT22;16814;52.118;11.436;2023-04-08T10:07:55;6.20;99.90
29571;DHT22;16814;52.118;11.436;2023-04-08T10:10:21;6.10;99.90
29571;DHT22;16814;52.118;11.436;2023-04-08T10:12:48;6.10;99.90
29571;DHT22;16814;52.118;11.436;2023-04-08T10:15:27;6.20;99.90
29571;DHT22;16814;52.118;11.436;2023-04-08T10:18:40;6.40;99.90
29571;DHT22;16814;52.118;11.436;2023-04-08T10:20:44;6.20;99.90
29571;DHT22;16814;52.118;11.436;2023-04-08T10:23:17;6.30;99.90
29571;DHT22;16814;52.118;11.436;2023-04-08T10:25:44;6.20;99.90
29571;DHT22;16814;52.118;11.436;2023-04-08T10:30:46;6.20;99.90
29571;DHT22;16814;52.118;11.436;2023-04-08T10:33:17;6.40;99.90
29571;DHT22;16814;52.118;11.436;2023-04-08T10:35:48;6.40;99.90
29571;DHT22;16814;52.118;11.436;2023-04-08T10:38:15;6.40;99.90
29571;DHT22;16814;52.118;11.436;2023-04-08T10:40:41;6.30;99.90
29571;DHT22;16814;52.118;11.436;2023-04-08T10:43:09;6.40;99.90
29571;DHT22;16814;52.118;11.436;2023-04-08T10:45:36;6.40;99.90
29571;DHT22;16814;52.118;11.436;2023-04-08T10:48:19;6.50;99.90
29571;DHT22;16814;52.118;11.436;2023-04-08T10:50:58;6.60;99.90
29571;DHT22;16814;52.118;11.436;2023-04-08T10:53:34;6.40;99.90
29571;DHT22;16814;52.118;11.436;2023-04-08T10:56:08;6.50;99.90
29571;DHT22;16814;52.118;11.436;2023-04-08T10:58:35;6.70;99.90
29571;DHT22;16814;52.118;11.436;2023-04-08T11:01:12;6.50;99.90
29571;DHT22;16814;52.118;11.436;2023-04-08T11:03:37;6.50;99.90
29571;DHT22;16814;52.118;11.436;2023-04-08T11:06:03;6.50;99.90
29571;DHT22;16814;52.118;11.436;2023-04-08T11:08:30;6.50;99.90
29571;DHT22;16814;52.118;11.436;2023-04-08T11:10:57;6.60;99.90
29571;DHT22;16814;52.118;11.436;2023-04-08T11:13:23;6.70;99.90
29571;DHT22;16814;52.118;11.436;2023-04-08T11:15:49;6.70;99.90
29571;DHT22;16814;52.118;11.436;2023-04-08T11:18:15;6.70;99.90
29571;DHT22;16814;52.118;11.436;2023-04-08T11:20:43;6.80;99.90
29571;DHT22;16814;52.118;11.436;2023-04-08T11:23:15;6.90;99.90
29571;DHT22;16814;52.118;11.436;2023-04-08T11:25:42;7.00;99.90
29571;DHT22;16814;52.118;11.436;2023-04-08T11:28:12;7.00;99.90
29571;DHT22;16814;52.118;11.436;2023-04-08T11:30:39;6.90;99.90
29571;DHT22;16814;52.118;11.436;2023-04-08T11:33:08;6.80;99.90
29571;DHT22;16814;52.118;11.436;2023-04-08T11:35:38;6.70;99.90
29571;DHT22;16814;52.118;11.436;2023-04-08T11:38:04;6.50;99.90
29571;DHT22;16814;52.118;11.436;2023-04-08T12:41:24;7.10;99.90
29571;DHT22;16814;52.118;11.436;2023-04-08T12:43:50;7.30;99.90
29571;DHT22;16814;52.118;11.436;2023-04-08T12:46:18;7.30;99.90
29571;DHT22;16814;52.118;11.436;2023-04-08T12:48:46;7.30;99.90
29571;DHT22;16814;52.118;11.436;2023-04-08T12:51:13;7.40;99.90
29571;DHT22;16814;52.118;11.436;2023-04-08T12:53:40;7.40;99.90
29571;DHT22;16814;52.118;11.436;2023-04-08T12:56:07;7.50;99.90
29571;DHT22;16814;52.118;11.436;2023-04-08T12:58:34;7.60;99.90
29571;DHT22;16814;52.118;11.436;2023-04-08T13:01:06;7.60;99.90
29571;DHT22;16814;52.118;11.436;2023-04-08T13:03:32;7.60;99.90
29571;DHT22;16814;52.118;11.436;2023-04-08T13:05:59;7.60;99.90
29571;DHT22;16814;52.118;11.436;2023-04-08T13:08:28;7.60;99.90
29571;DHT22;16814;52.118;11.436;2023-04-08T13:11:01;7.70;99.90
29571;DHT22;16814;52.118;11.436;2023-04-08T13:13:26;7.80;99.90
29571;DHT22;16814;52.118;11.436;2023-04-08T13:15:53;8.00;99.90
29571;DHT22;16814;52.118;11.436;2023-04-08T13:18:20;7.80;99.90
29571;DHT22;16814;52.118;11.436;2023-04-08T13:20:48;7.90;99.90
29571;DHT22;16814;52.118;11.436;2023-04-08T13:23:15;8.10;99.90
29571;DHT22;16814;52.118;11.436;2023-04-08T13:25:44;8.10;99.90
29571;DHT22;16814;52.118;11.436;2023-04-08T13:28:13;8.10;99.90
29571;DHT22;16814;52.118;11.436;2023-04-08T13:30:41;8.20;99.90
29571;DHT22;16814;52.118;11.436;2023-04-08T13:33:09;8.30;99.90
29571;DHT22;16814;52.118;11.436;2023-04-08T13:35:34;8.30;99.90
29571;DHT22;16814;52.118;11.436;2023-04-08T13:38:01;8.30;99.90
29571;DHT22;16814;52.118;11.436;2023-04-08T13:40:28;8.40;99.90
29571;DHT22;16814;52.118;11.436;2023-04-08T13:42:56;8.40;99.90
29571;DHT22;16814;52.118;11.436;2023-04-08T13:45:23;8.30;99.90
29571;DHT22;16814;52.118;11.436;2023-04-08T13:47:48;8.40;99.90
29571;DHT22;16814;52.118;11.436;2023-04-08T13:50:14;8.30;99.90
29571;DHT22;16814;52.118;11.436;2023-04-08T13:52:41;8.40;99.90
29571;DHT22;16814;52.118;11.436;2023-04-08T13:55:08;8.20;99.90
29571;DHT22;16814;52.118;11.436;2023-04-08T13:57:36;8.30;99.90
29571;DHT22;16814;52.118;11.436;2023-04-08T14:00:03;8.40;99.90
29571;DHT22;16814;52.118;11.436;2023-04-08T14:02:29;8.40;99.90
29571;DHT22;16814;52.118;11.436;2023-04-08T14:04:58;8.30;99.90
29571;DHT22;16814;52.118;11.436;2023-04-08T14:07:25;8.20;99.90
29571;DHT22;16814;52.118;11.436;2023-04-08T14:09:51;8.10;99.90
29571;DHT22;16814;52.118;11.436;2023-04-08T14:12:18;8.10;99.90
29571;DHT22;16814;52.118;11.436;2023-04-08T14:14:45;8.20;99.90
29571;DHT22;16814;52.118;11.436;2023-04-08T14:17:15;8.30;99.90
29571;DHT22;16814;52.118;11.436;2023-04-08T14:19:42;8.30;99.90
29571;DHT22;16814;52.118;11.436;2023-04-08T14:22:09;8.30;99.90
29571;DHT22;16814;52.118;11.436;2023-04-08T14:24:37;8.30;99.90
29571;DHT22;16814;52.118;11.436;2023-04-08T14:27:04;8.30;99.90
29571;DHT22;16814;52.118;11.436;2023-04-08T14:29:30;8.20;99.90
29571;DHT22;16814;52.118;11.436;2023-04-08T14:31:57;8.20;99.90
29571;DHT22;16814;52.118;11.436;2023-04-08T14:34:24;8.20;99.90
29571;DHT22;16814;52.118;11.436;2023-04-08T14:36:52;8.10;99.90
29571;DHT22;16814;52.118;11.436;2023-04-08T14:39:21;8.00;99.90
29571;DHT22;16814;52.118;11.436;2023-04-08T14:41:47;8.00;99.90
29571;DHT22;16814;52.118;11.436;2023-04-08T14:44:12;8.00;99.90
29571;DHT22;16814;52.118;11.436;2023-04-08T14:46:39;8.20;99.90
29571;DHT22;16814;52.118;11.436;2023-04-08T14:49:05;8.10;99.90
29571;DHT22;16814;52.118;11.436;2023-04-08T14:51:33;8.20;99.90
29571;DHT22;16814;52.118;11.436;2023-04-08T14:53:58;8.10;99.90
29571;DHT22;16814;52.118;11.436;2023-04-08T14:56:26;8.10;99.90
29571;DHT22;16814;52.118;11.436;2023-04-08T14:58:53;8.10;99.90
29571;DHT22;16814;52.118;11.436;2023-04-08T15:01:22;8.10;99.90
29571;DHT22;16814;52.118;11.436;2023-04-08T15:03:49;8.10;99.90
29571;DHT22;16814;52.118;11.436;2023-04-08T15:06:21;8.30;99.90
29571;DHT22;16814;52.118;11.436;2023-04-08T15:08:49;8.40;99.90
29571;DHT22;16814;52.118;11.436;2023-04-08T15:11:16;8.30;99.90
29571;DHT22;16814;52.118;11.436;2023-04-08T15:13:45;8.10;99.90
29571;DHT22;16814;52.118;11.436;2023-04-08T15:16:13;8.10;99.90
29571;DHT22;16814;52.118;11.436;2023-04-08T15:18:39;8.10;99.90
29571;DHT22;16814;52.118;11.436;2023-04-08T15:21:06;8.20;99.90
29571;DHT22;16814;52.118;11.436;2023-04-08T15:23:31;8.20;99.90
29571;DHT22;16814;52.118;11.436;2023-04-08T15:25:59;8.30;99.90
29571;DHT22;16814;52.118;11.436;2023-04-08T15:28:27;8.30;99.90
29571;DHT22;16814;52.118;11.436;2023-04-08T15:30:54;8.30;99.90
29571;DHT22;16814;52.118;11.436;2023-04-08T15:33:20;8.40;99.90
29571;DHT22;16814;52.118;11.436;2023-04-08T15:35:47;8.40;99.90
29571;DHT22;16814;52.118;11.436;2023-04-08T15:38:15;8.30;99.90
29571;DHT22;16814;52.118;11.436;2023-04-08T15:40:42;8.40;99.90
29571;DHT22;16814;52.118;11.436;2023-04-08T15:43:10;8.40;99.90
29571;DHT22;16814;52.118;11.436;2023-04-08T15:45:44;8.50;99.90
29571;DHT22;16814;52.118;11.436;2023-04-08T15:48:12;8.60;99.90
29571;DHT22;16814;52.118;11.436;2023-04-08T15:50:39;8.60;99.90
29571;DHT22;16814;52.118;11.436;2023-04-08T15:53:07;8.40;99.90
29571;DHT22;16814;52.118;11.436;2023-04-08T15:55:39;8.40;99.90
29571;DHT22;16814;52.118;11.436;2023-04-08T15:58:08;8.30;99.90
29571;DHT22;16814;52.118;11.436;2023-04-08T16:00:35;8.30;99.90
29571;DHT22;16814;52.118;11.436;2023-04-08T16:03:02;8.30;99.90
29571;DHT22;16814;52.118;11.436;2023-04-08T16:05:32;8.40;99.90
29571;DHT22;16814;52.118;11.436;2023-04-08T16:08:03;8.40;99.90
29571;DHT22;16814;52.118;11.436;2023-04-08T16:10:32;8.50;99.90
29571;DHT22;16814;52.118;11.436;2023-04-08T16:13:00;8.60;99.90
29571;DHT22;16814;52.118;11.436;2023-04-08T16:15:28;8.60;99.90
29571;DHT22;16814;52.118;11.436;2023-04-08T16:17:53;8.60;99.90
29571;DHT22;16814;52.118;11.436;2023-04-08T16:20:22;8.50;99.90
29571;DHT22;16814;52.118;11.436;2023-04-08T16:22:47;8.60;99.90
29571;DHT22;16814;52.118;11.436;2023-04-08T16:25:19;8.60;99.90
29571;DHT22;16814;52.118;11.436;2023-04-08T16:27:54;8.60;99.90
29571;DHT22;16814;52.118;11.436;2023-04-08T16:30:19;8.60;99.90
29571;DHT22;16814;52.118;11.436;2023-04-08T16:32:46;8.50;99.90
29571;DHT22;16814;52.118;11.436;2023-04-08T16:35:11;8.60;99.90
29571;DHT22;16814;52.118;11.436;2023-04-08T16:37:39;8.50;99.90
29571;DHT22;16814;52.118;11.436;2023-04-08T16:40:07;8.60;99.90
29571;DHT22;16814;52.118;11.436;2023-04-08T16:42:37;8.60;99.90
29571;DHT22;16814;52.118;11.436;2023-04-08T16:45:04;8.50;99.90